ADDS METAR Data INFO
IDs: Format: Raw Decoded Include TAF

Data at: 1747 UTC 21 Oct 2017

METAR for:KOCF (Ocala Rgnl, FL, US)
Text:KOCF 211651Z COR VRB06KT 10SM SCT055 28/18 A3018 RMK AO2 SLP221 T02780183
Temperature: 27.8°C ( 82°F)
Dewpoint: 18.3°C ( 65°F) [RH = 56%]
Pressure (altimeter):30.18 inches Hg (1022.1 mb) [Sea level pressure: 1022.1 mb]
Winds:variable direction winds at 7 MPH (6 knots; 3.1 m/s)
Visibility:10 or more sm (16+ km)
Ceiling:at least 12,000 feet AGL
Clouds: scattered clouds at 5500 feet AGL